South Padre Island, Texas
Current Conditions -  °F | °C
As of 9:53 PM on Thursday 18 Dec 2014 (Local Time) from KPIL Reporting Station
Overcast Overcast  
Wind Chill: 71°   Ceiling: 7000
Heat Index: 71°   Visibility: 7mi
Dew Point: 67°   Wind: 7mph
Humidity: 87%   Direction: 140°SE
Pressure: 30"   Gusts: NA
Location:  26.1°N, 97.17°W
Report Text: KPIL 190353Z AUTO 14006KT 7SM OVC070 22/19 A3000 RMK AO2 SLP158 T02170194
Loading
Personal Weather Stations






























Interactive Weather Map New forecast layout! Learn more

10-Day Weather Forecast

Advertisements
Track Severe Weather on mobile